Time;durP1;ratioP1;P1;durP2;ratioP2;P2;SDS_P1;SDS_P2;PMS_P1;PMS_P2;Temp;Humidity;BMP_temperature;BMP_pressure;BME280_temperature;BME280_humidity;BME280_pressure;Samples;Min_cycle;Max_cycle;Signal;HPM_P1;HPM_P2
2023/07/07 00:01:02;;;;;;;10.17;5.83;;;14.80;99.90;;;;;;5094637;28;20806;-61
2023/07/07 00:03:31;;;;;;;9.10;5.73;;;14.70;99.90;;;;;;5093429;28;20209;-63
2023/07/07 00:06:00;;;;;;;12.57;7.03;;;14.70;99.90;;;;;;5088642;28;20191;-62
2023/07/07 00:08:29;;;;;;;12.50;7.23;;;14.70;99.90;;;;;;5092894;28;20221;-61
2023/07/07 00:11:00;;;;;;;10.97;6.63;;;14.60;99.90;;;;;;5091233;28;20722;-62
2023/07/07 00:13:28;;;;;;;14.10;6.77;;;14.60;99.90;;;;;;5093041;28;20224;-62
2023/07/07 00:16:00;;;;;;;10.97;7.00;;;14.50;99.90;;;;;;5076905;28;20227;-62
2023/07/07 00:18:29;;;;;;;12.27;6.57;;;14.50;99.90;;;;;;5088467;28;20188;-61
2023/07/07 00:21:00;;;;;;;12.40;6.83;;;14.40;99.90;;;;;;5093292;28;20195;-62
2023/07/07 00:23:30;;;;;;;9.00;6.27;;;14.40;99.90;;;;;;5074581;28;20807;-62
2023/07/07 00:26:00;;;;;;;10.47;5.40;;;14.30;99.90;;;;;;5091132;28;20215;-62
2023/07/07 00:28:28;;;;;;;9.53;5.97;;;14.30;99.90;;;;;;5092501;28;20247;-61
2023/07/07 00:30:56;;;;;;;8.57;5.97;;;14.30;99.90;;;;;;5088425;28;20585;-61
2023/07/07 00:33:26;;;;;;;6.03;5.43;;;14.30;99.90;;;;;;5088635;28;20191;-62
2023/07/07 00:35:54;;;;;;;9.50;5.77;;;14.30;99.90;;;;;;5088426;28;20621;-61
2023/07/07 00:38:25;;;;;;;8.03;5.67;;;14.20;99.90;;;;;;5082750;28;20219;-61
2023/07/07 00:40:54;;;;;;;11.20;5.47;;;14.20;99.90;;;;;;5065077;28;20228;-61
2023/07/07 00:43:23;;;;;;;7.43;5.30;;;14.20;99.90;;;;;;5092115;28;20800;-63
2023/07/07 00:45:51;;;;;;;6.07;5.00;;;14.10;99.90;;;;;;5092945;28;20219;-61
2023/07/07 00:48:21;;;;;;;9.73;5.57;;;14.10;99.90;;;;;;5091925;28;20179;-61
2023/07/07 00:50:56;;;;;;;7.03;5.03;;;14.10;99.90;;;;;;5084605;28;20199;-61
2023/07/07 00:53:26;;;;;;;7.93;5.20;;;14.10;99.90;;;;;;5089645;28;20224;-61
2023/07/07 00:55:59;;;;;;;6.30;5.43;;;14.10;99.90;;;;;;5087867;28;20236;-62
2023/07/07 00:58:27;;;;;;;6.47;5.03;;;14.00;99.90;;;;;;5081847;28;20222;-63
2023/07/07 01:01:00;;;;;;;5.67;5.17;;;13.90;99.90;;;;;;5089317;28;20294;-62
2023/07/07 01:03:37;;;;;;;6.20;4.90;;;13.90;99.90;;;;;;5086180;28;20294;-61
2023/07/07 01:06:08;;;;;;;6.23;5.40;;;13.90;99.90;;;;;;5086639;28;20278;-61
2023/07/07 01:08:40;;;;;;;5.90;5.37;;;13.90;99.90;;;;;;5091946;28;20548;-61
2023/07/07 01:11:09;;;;;;;8.07;5.10;;;13.80;99.90;;;;;;5092316;28;20226;-61
2023/07/07 01:13:38;;;;;;;7.63;4.93;;;13.80;99.90;;;;;;5090275;28;20219;-61
2023/07/07 01:16:14;;;;;;;6.37;5.00;;;13.80;99.90;;;;;;5085349;28;20782;-61
2023/07/07 01:18:51;;;;;;;6.87;5.20;;;13.70;99.90;;;;;;5086635;28;20628;-62
2023/07/07 01:21:29;;;;;;;8.63;5.50;;;13.70;99.90;;;;;;5092029;28;20191;-62
2023/07/07 01:24:25;;;;;;;6.40;4.80;;;13.70;99.90;;;;;;5092371;28;20203;-61
2023/07/07 01:27:07;;;;;;;7.03;5.03;;;13.60;99.90;;;;;;5079582;28;20550;-61
2023/07/07 01:30:09;;;;;;;6.27;5.40;;;13.60;99.90;;;;;;5090835;28;20211;-61
2023/07/07 01:32:39;;;;;;;8.37;4.93;;;13.60;99.90;;;;;;5089519;28;20233;-61
2023/07/07 01:35:13;;;;;;;8.07;5.43;;;13.70;99.90;;;;;;5096180;28;20298;-61
2023/07/07 01:37:51;;;;;;;7.03;5.07;;;13.70;99.90;;;;;;5091184;28;20257;-62
2023/07/07 01:40:20;;;;;;;7.77;4.90;;;13.70;99.90;;;;;;5094976;28;20588;-61
2023/07/07 01:42:57;;;;;;;9.00;5.20;;;13.70;99.90;;;;;;5089262;28;20215;-62
2023/07/07 01:45:36;;;;;;;6.53;5.17;;;13.70;99.90;;;;;;5083369;28;20541;-61
2023/07/07 01:48:15;;;;;;;6.10;5.50;;;13.70;99.90;;;;;;5090026;28;20533;-62
2023/07/07 01:50:44;;;;;;;5.80;5.00;;;13.70;99.90;;;;;;5091778;28;20223;-62
2023/07/07 01:53:20;;;;;;;8.17;4.63;;;13.70;99.90;;;;;;5091482;28;20243;-62
2023/07/07 01:55:51;;;;;;;5.33;4.60;;;13.60;99.90;;;;;;5094259;28;20234;-61
2023/07/07 01:58:21;;;;;;;5.73;4.97;;;13.60;99.90;;;;;;5094205;28;20223;-61
2023/07/07 02:00:51;;;;;;;5.20;4.40;;;13.60;99.90;;;;;;5094510;28;20215;-61
2023/07/07 02:03:20;;;;;;;5.57;4.80;;;13.50;99.90;;;;;;5094413;28;20209;-61
2023/07/07 02:05:49;;;;;;;6.70;4.90;;;13.50;99.90;;;;;;5089523;28;20215;-61
2023/07/07 02:08:18;;;;;;;4.97;4.53;;;13.50;99.90;;;;;;5088168;28;20257;-61
2023/07/07 02:10:46;;;;;;;7.90;5.10;;;13.40;99.90;;;;;;5094105;28;20215;-61
2023/07/07 02:13:15;;;;;;;6.60;4.60;;;13.40;99.90;;;;;;5086872;28;20230;-65
2023/07/07 02:15:43;;;;;;;7.17;5.00;;;13.40;99.90;;;;;;5087791;28;20239;-65
2023/07/07 02:18:11;;;;;;;5.10;4.43;;;13.40;99.90;;;;;;5090357;28;20191;-65
2023/07/07 02:20:41;;;;;;;5.20;4.47;;;13.40;99.90;;;;;;5088226;28;20225;-65
2023/07/07 02:23:09;;;;;;;5.13;4.67;;;13.40;99.90;;;;;;5068179;28;20227;-65
2023/07/07 02:25:38;;;;;;;9.80;4.80;;;13.40;99.90;;;;;;5085772;28;20899;-65
2023/07/07 02:28:06;;;;;;;6.77;5.00;;;13.40;99.90;;;;;;5089226;28;20223;-64
2023/07/07 02:30:36;;;;;;;5.20;4.67;;;13.30;99.90;;;;;;5088668;28;20210;-65
2023/07/07 02:33:08;;;;;;;5.47;4.83;;;13.30;99.90;;;;;;5083673;28;20202;-65
2023/07/07 02:35:36;;;;;;;5.43;4.93;;;13.30;99.90;;;;;;5065964;28;20222;-65
2023/07/07 02:38:06;;;;;;;7.17;5.20;;;13.30;99.90;;;;;;5071274;28;20208;-65
2023/07/07 02:40:34;;;;;;;5.70;5.20;;;13.20;99.90;;;;;;5089491;28;20815;-65
2023/07/07 02:43:02;;;;;;;5.27;4.77;;;13.20;99.90;;;;;;5090525;28;20590;-65
2023/07/07 02:45:31;;;;;;;7.17;4.47;;;13.20;99.90;;;;;;5088707;28;20211;-65
2023/07/07 02:47:59;;;;;;;5.97;4.50;;;13.20;99.90;;;;;;5089449;28;20780;-64
2023/07/07 02:50:27;;;;;;;6.50;4.40;;;13.20;99.90;;;;;;5089621;28;20265;-64
2023/07/07 02:52:55;;;;;;;5.27;4.60;;;13.20;99.90;;;;;;5086194;28;20249;-65
2023/07/07 02:55:25;;;;;;;4.97;4.57;;;13.10;99.90;;;;;;5089278;28;20238;-65
2023/07/07 02:57:53;;;;;;;5.27;4.77;;;13.10;99.90;;;;;;5088327;28;20273;-64
2023/07/07 03:00:25;;;;;;;6.70;4.53;;;13.10;99.90;;;;;;5088489;28;20203;-64
2023/07/07 03:02:53;;;;;;;5.03;4.63;;;13.10;99.90;;;;;;5086579;28;20187;-65
2023/07/07 03:05:21;;;;;;;7.30;5.10;;;13.10;99.90;;;;;;5088007;28;20310;-65
2023/07/07 03:07:50;;;;;;;4.97;4.57;;;13.10;99.90;;;;;;5087145;28;20225;-65
2023/07/07 03:10:18;;;;;;;5.83;5.13;;;13.00;99.90;;;;;;5088880;28;20229;-65
2023/07/07 03:12:48;;;;;;;5.23;4.47;;;13.00;99.90;;;;;;5087971;28;20324;-65
2023/07/07 03:15:20;;;;;;;6.07;4.77;;;12.90;99.90;;;;;;5089362;28;20187;-65
2023/07/07 03:17:49;;;;;;;8.57;4.93;;;12.90;99.90;;;;;;5089538;28;20207;-65
2023/07/07 03:20:17;;;;;;;6.23;5.17;;;12.90;99.90;;;;;;5089964;28;20562;-65
2023/07/07 03:22:46;;;;;;;6.30;4.50;;;12.80;99.90;;;;;;5089214;28;20227;-65
2023/07/07 03:25:14;;;;;;;6.57;4.90;;;12.90;99.90;;;;;;5090915;28;20223;-65
2023/07/07 03:27:42;;;;;;;4.93;4.50;;;12.90;99.90;;;;;;5087831;28;20219;-65
2023/07/07 03:30:12;;;;;;;6.43;4.80;;;12.80;99.90;;;;;;5090894;28;20187;-65
2023/07/07 03:32:41;;;;;;;6.03;4.87;;;12.80;99.90;;;;;;5089078;28;20322;-65
2023/07/07 03:35:09;;;;;;;9.43;4.77;;;12.80;99.90;;;;;;5085886;28;20211;-64
2023/07/07 03:37:37;;;;;;;5.50;4.50;;;12.80;99.90;;;;;;5086386;28;20220;-65
2023/07/07 03:40:09;;;;;;;5.53;4.70;;;12.80;99.90;;;;;;5088445;28;20231;-65
2023/07/07 03:42:38;;;;;;;5.37;4.87;;;12.80;99.90;;;;;;5085202;28;21562;-65
2023/07/07 03:45:07;;;;;;;7.00;4.80;;;12.70;99.90;;;;;;5070408;28;20226;-65
2023/07/07 03:47:37;;;;;;;6.10;4.77;;;12.70;99.90;;;;;;5086979;28;20562;-65
2023/07/07 03:50:07;;;;;;;5.23;4.37;;;12.70;99.90;;;;;;5068414;28;20211;-65
2023/07/07 03:52:36;;;;;;;8.73;5.00;;;12.70;99.90;;;;;;5087110;28;20269;-65
2023/07/07 03:55:04;;;;;;;6.83;4.70;;;12.70;99.90;;;;;;5088246;28;20235;-65
2023/07/07 03:57:33;;;;;;;4.77;4.37;;;12.70;99.90;;;;;;5087128;28;20201;-64
2023/07/07 04:00:02;;;;;;;6.97;4.80;;;12.80;99.90;;;;;;5080876;28;20673;-65
2023/07/07 04:02:31;;;;;;;5.23;4.77;;;12.70;99.90;;;;;;5083244;28;20238;-64
2023/07/07 04:05:01;;;;;;;5.37;4.73;;;12.70;99.90;;;;;;5087848;28;20234;-65
2023/07/07 04:07:30;;;;;;;6.97;4.80;;;12.70;99.90;;;;;;5088380;28;20276;-65
2023/07/07 04:09:58;;;;;;;5.20;4.70;;;12.70;99.90;;;;;;5089976;28;20219;-64
2023/07/07 04:12:26;;;;;;;5.53;4.67;;;12.80;99.90;;;;;;5084504;28;20199;-64
2023/07/07 04:14:55;;;;;;;6.60;4.60;;;12.70;99.90;;;;;;5089020;28;20187;-65
2023/07/07 04:17:23;;;;;;;7.00;4.50;;;12.80;99.90;;;;;;5069966;28;20231;-65
2023/07/07 04:19:51;;;;;;;5.43;4.70;;;12.80;99.90;;;;;;5087038;28;20708;-65
2023/07/07 04:22:21;;;;;;;5.93;5.10;;;12.80;99.90;;;;;;5089191;28;20219;-65
2023/07/07 04:25:07;;;;;;;7.13;4.90;;;12.80;99.90;;;;;;5089345;28;20700;-65
2023/07/07 04:27:36;;;;;;;4.93;4.57;;;12.80;99.90;;;;;;5088939;28;20191;-64
2023/07/07 04:30:05;;;;;;;5.10;4.60;;;12.80;99.90;;;;;;5089860;28;20191;-65
2023/07/07 04:32:35;;;;;;;6.33;4.80;;;12.90;99.90;;;;;;5067823;28;20254;-65
2023/07/07 04:35:04;;;;;;;7.20;4.87;;;12.90;99.90;;;;;;5083801;28;20727;-65
2023/07/07 04:37:34;;;;;;;7.63;4.60;;;13.00;99.90;;;;;;5082429;28;20226;-65
2023/07/07 04:40:02;;;;;;;6.23;4.77;;;13.00;99.90;;;;;;5066067;28;20219;-65
2023/07/07 04:42:30;;;;;;;5.87;4.70;;;13.00;99.90;;;;;;5085299;28;20319;-64
2023/07/07 04:44:59;;;;;;;7.13;4.80;;;13.10;99.90;;;;;;5084277;28;20216;-65
2023/07/07 04:47:27;;;;;;;8.03;5.27;;;13.20;99.90;;;;;;5080300;28;20227;-65
2023/07/07 04:49:56;;;;;;;7.13;4.77;;;13.30;99.90;;;;;;5081164;28;20215;-65
2023/07/07 04:52:25;;;;;;;7.53;4.97;;;13.40;99.90;;;;;;5086671;28;20323;-65
2023/07/07 04:54:54;;;;;;;6.30;4.83;;;13.50;99.90;;;;;;5078799;28;20215;-65
2023/07/07 04:57:23;;;;;;;7.03;4.97;;;13.60;99.90;;;;;;5085096;28;20294;-64
2023/07/07 04:59:51;;;;;;;5.90;4.87;;;13.70;99.90;;;;;;5064771;28;20192;-65
2023/07/07 05:02:22;;;;;;;7.50;4.57;;;13.80;99.90;;;;;;5059214;28;20220;-65
2023/07/07 05:04:51;;;;;;;7.13;4.20;;;13.90;99.90;;;;;;5076068;28;20284;-65
2023/07/07 05:07:19;;;;;;;7.13;4.53;;;13.90;99.90;;;;;;5080465;28;20250;-65
2023/07/07 05:09:48;;;;;;;4.63;4.23;;;14.10;99.90;;;;;;5065905;28;20223;-65
2023/07/07 05:12:20;;;;;;;5.83;4.77;;;14.10;99.90;;;;;;5085271;28;20686;-65
2023/07/07 05:14:49;;;;;;;8.80;4.30;;;14.20;99.90;;;;;;5085054;28;20211;-65
2023/07/07 05:17:17;;;;;;;6.43;4.60;;;14.30;99.90;;;;;;5067464;28;20222;-65
2023/07/07 05:19:45;;;;;;;8.87;4.77;;;14.40;99.90;;;;;;5086408;28;20692;-65
2023/07/07 05:22:13;;;;;;;8.03;4.17;;;14.50;99.90;;;;;;5087657;28;20223;-65
2023/07/07 05:24:42;;;;;;;5.83;4.27;;;14.70;99.90;;;;;;5086078;28;20227;-65
2023/07/07 05:27:10;;;;;;;5.03;4.10;;;14.90;99.90;;;;;;5083477;28;20222;-65
2023/07/07 05:29:39;;;;;;;4.67;4.17;;;15.00;99.90;;;;;;5080514;28;20222;-65
2023/07/07 05:32:08;;;;;;;9.60;4.77;;;15.20;99.90;;;;;;5082743;28;20224;-65
2023/07/07 05:34:37;;;;;;;7.67;4.20;;;15.30;99.90;;;;;;5082266;28;20833;-65
2023/07/07 05:37:06;;;;;;;4.33;3.90;;;15.50;99.90;;;;;;5085534;28;20698;-65
2023/07/07 05:39:34;;;;;;;7.73;3.97;;;15.70;99.90;;;;;;5082091;28;20197;-65
2023/07/07 05:42:02;;;;;;;4.40;3.70;;;15.80;99.90;;;;;;5080438;28;20192;-65
2023/07/07 05:44:30;;;;;;;7.53;3.87;;;16.00;99.00;;;;;;5082508;28;20548;-65
2023/07/07 05:47:00;;;;;;;5.47;3.70;;;16.20;88.90;;;;;;5082004;28;20296;-65
2023/07/07 05:49:28;;;;;;;8.87;4.27;;;16.40;85.80;;;;;;5084208;28;20215;-65
2023/07/07 05:51:57;;;;;;;6.40;3.63;;;16.60;89.90;;;;;;5081790;28;20303;-65
2023/07/07 05:54:25;;;;;;;4.97;3.90;;;16.80;62.30;;;;;;5079820;28;20482;-64
2023/07/07 05:56:54;;;;;;;6.30;4.20;;;17.00;66.30;;;;;;5086884;28;20226;-65
2023/07/07 05:59:23;;;;;;;5.90;3.90;;;17.10;72.10;;;;;;5086562;28;20723;-65
2023/07/07 06:01:51;;;;;;;5.17;3.77;;;17.20;61.80;;;;;;5081373;28;20296;-65
2023/07/07 06:04:21;;;;;;;4.70;3.90;;;17.30;44.20;;;;;;5079772;28;20637;-65
2023/07/07 06:06:49;;;;;;;5.70;3.50;;;17.50;51.20;;;;;;5065241;28;20229;-65
2023/07/07 06:09:18;;;;;;;7.17;3.80;;;17.60;30.70;;;;;;5080271;28;21886;-66
2023/07/07 06:11:47;;;;;;;6.80;3.30;;;17.70;38.70;;;;;;5074392;28;20242;-65
2023/07/07 06:14:16;;;;;;;4.70;3.17;;;17.90;30.50;;;;;;5065978;28;20219;-66
2023/07/07 06:16:45;;;;;;;3.10;2.90;;;18.00;20.50;;;;;;5083434;28;20203;-66
2023/07/07 06:19:13;;;;;;;3.37;3.03;;;18.10;1.00;;;;;;5078407;28;20223;-65
2023/07/07 06:21:43;;;;;;;3.53;3.13;;;18.30;1.00;;;;;;5079133;28;20219;-65
2023/07/07 06:24:11;;;;;;;2.87;2.73;;;18.40;1.00;;;;;;5067936;28;20283;-66
2023/07/07 06:26:40;;;;;;;7.77;3.10;;;18.50;1.00;;;;;;5083415;28;20223;-66
2023/07/07 06:29:08;;;;;;;3.30;3.00;;;18.60;1.00;;;;;;5087271;28;20245;-65
2023/07/07 06:31:36;;;;;;;3.77;3.00;;;18.70;1.00;;;;;;5085509;28;20227;-65
2023/07/07 06:34:05;;;;;;;3.30;3.03;;;18.90;1.00;;;;;;5084899;28;20211;-65
2023/07/07 06:36:33;;;;;;;3.70;3.17;;;19.10;1.00;;;;;;5080405;28;20215;-65
2023/07/07 06:39:03;;;;;;;5.03;2.77;;;19.30;1.00;;;;;;5086922;28;20191;-65
2023/07/07 06:41:31;;;;;;;4.50;3.10;;;19.50;1.00;;;;;;5070107;28;20238;-66
2023/07/07 06:43:59;;;;;;;7.60;3.03;;;19.70;1.00;;;;;;5092307;28;20223;-66
2023/07/07 06:46:28;;;;;;;3.10;2.80;;;19.90;1.00;;;;;;5088818;28;20227;-66
2023/07/07 06:48:59;;;;;;;3.73;2.50;;;19.90;1.00;;;;;;5092360;28;20227;-66
2023/07/07 06:51:28;;;;;;;9.93;2.60;;;19.90;1.00;;;;;;5089132;28;20191;-65
2023/07/07 06:53:56;;;;;;;2.77;2.60;;;20.00;1.00;;;;;;5089365;28;20187;-65
2023/07/07 06:56:26;;;;;;;3.63;2.77;;;20.20;1.00;;;;;;5089910;28;20720;-65
2023/07/07 06:58:54;;;;;;;3.47;3.00;;;20.30;1.00;;;;;;5066161;28;20211;-66
2023/07/07 07:01:23;;;;;;;3.53;2.43;;;20.50;1.00;;;;;;5088325;28;20211;-66
2023/07/07 07:03:51;;;;;;;2.70;2.50;;;20.70;1.00;;;;;;5069855;28;20223;-65
2023/07/07 07:06:19;;;;;;;4.70;2.80;;;20.80;1.00;;;;;;5089069;28;20207;-65
2023/07/07 07:08:47;;;;;;;3.47;2.60;;;20.80;1.00;;;;;;5086232;28;20237;-66
2023/07/07 07:11:16;;;;;;;2.47;2.30;;;21.00;1.00;;;;;;5085764;28;20652;-66
2023/07/07 07:13:47;;;;;;;5.23;2.47;;;21.20;1.00;;;;;;5089875;28;20241;-66
2023/07/07 07:16:15;;;;;;;3.13;2.47;;;21.30;1.00;;;;;;5090115;28;20302;-66
2023/07/07 07:18:44;;;;;;;7.50;2.57;;;21.40;1.00;;;;;;5084376;28;20294;-66
2023/07/07 07:21:12;;;;;;;4.30;2.10;;;21.60;1.00;;;;;;5065482;28;20678;-67
2023/07/07 07:23:41;;;;;;;5.93;2.90;;;21.80;1.00;;;;;;5085948;28;20229;-66
2023/07/07 07:26:09;;;;;;;2.57;2.47;;;22.00;1.00;;;;;;5089605;28;20238;-66
2023/07/07 07:28:38;;;;;;;2.80;2.60;;;22.10;1.00;;;;;;5082240;28;20233;-66
2023/07/07 07:31:08;;;;;;;3.30;2.43;;;22.20;1.00;;;;;;5087268;27;20251;-66
2023/07/07 07:33:36;;;;;;;2.87;2.67;;;22.30;99.90;;;;;;5082756;28;20196;-66
2023/07/07 07:36:04;;;;;;;6.50;2.50;;;22.50;99.90;;;;;;5085542;28;20587;-66
2023/07/07 07:38:33;;;;;;;3.57;2.20;;;22.80;99.90;;;;;;5084591;28;20236;-66
2023/07/07 07:41:01;;;;;;;3.80;2.43;;;22.90;99.90;;;;;;5083645;28;20219;-66
2023/07/07 07:43:30;;;;;;;5.03;2.40;;;23.10;1.00;;;;;;5082347;28;20308;-66
2023/07/07 07:45:58;;;;;;;4.83;2.27;;;23.20;99.90;;;;;;5087658;28;20311;-65
2023/07/07 07:48:28;;;;;;;5.53;2.87;;;23.30;1.00;;;;;;5086628;28;20205;-65
2023/07/07 07:50:56;;;;;;;6.37;2.13;;;23.30;1.00;;;;;;5082332;28;21354;-66
2023/07/07 07:53:25;;;;;;;2.03;1.93;;;23.40;1.00;;;;;;5088881;28;20225;-65
2023/07/07 07:55:54;;;;;;;3.13;2.47;;;23.60;19.00;;;;;;5082169;28;20232;-66
2023/07/07 07:58:25;;;;;;;2.40;2.20;;;23.80;1.00;;;;;;5083015;28;20227;-65
2023/07/07 08:00:53;;;;;;;3.07;2.40;;;23.80;99.90;;;;;;5082396;28;20226;-66
2023/07/07 08:03:22;;;;;;;3.50;2.20;;;23.90;1.00;;;;;;5083517;28;20332;-64
2023/07/07 08:05:52;;;;;;;3.80;2.40;;;24.00;99.90;;;;;;5085286;28;20236;-65
2023/07/07 08:08:20;;;;;;;4.93;2.77;;;24.20;1.00;;;;;;5083638;28;20218;-65
2023/07/07 08:10:48;;;;;;;4.50;2.33;;;24.30;99.90;;;;;;5085747;28;20234;-65
2023/07/07 08:13:36;;;;;;;4.30;2.07;;;24.40;99.90;;;;;;5087479;28;20255;-65
2023/07/07 08:16:10;;;;;;;5.47;2.17;;;24.50;1.00;;;;;;5085863;28;20226;-65
2023/07/07 08:18:39;;;;;;;2.37;2.17;;;24.70;99.90;;;;;;5090881;28;20280;-64
2023/07/07 08:21:09;;;;;;;4.93;2.47;;;24.70;99.90;;;;;;5091470;28;20199;-65
2023/07/07 08:23:37;;;;;;;3.73;2.10;;;24.90;99.90;;;;;;5089639;28;20234;-65
2023/07/07 08:26:06;;;;;;;7.20;2.30;;;24.90;1.00;;;;;;5089205;28;20225;-66
2023/07/07 08:28:37;;;;;;;4.63;2.80;;;25.00;1.00;;;;;;5089387;28;20254;-66
2023/07/07 08:31:16;;;;;;;2.37;2.23;;;25.10;1.00;;;;;;5067879;28;20223;-65
2023/07/07 08:33:46;;;;;;;3.27;2.47;;;25.20;99.90;;;;;;5085254;28;20786;-65
2023/07/07 08:36:29;;;;;;;2.93;2.00;;;25.40;1.00;;;;;;5088957;28;20203;-65
2023/07/07 08:39:01;;;;;;;2.10;1.90;;;25.60;1.00;;;;;;5085748;28;20278;-65
2023/07/07 08:41:30;;;;;;;2.60;2.20;;;25.60;99.90;;;;;;5087851;28;20416;-66
2023/07/07 08:43:58;;;;;;;4.23;2.27;;;25.50;99.90;;;;;;5071689;28;20223;-65
2023/07/07 08:46:37;;;;;;;2.60;2.43;;;25.70;1.00;;;;;;5066433;28;20223;-66
2023/07/07 08:49:13;;;;;;;2.67;2.47;;;25.70;62.00;;;;;;5065771;28;20230;-66
2023/07/07 08:51:48;;;;;;;3.60;2.20;;;25.70;1.00;;;;;;5083557;28;20227;-66
2023/07/07 08:54:20;;;;;;;2.37;2.17;;;25.80;99.90;;;;;;5080199;28;20183;-65
2023/07/07 08:56:55;;;;;;;2.30;2.10;;;25.80;1.00;;;;;;5088076;28;20231;-65
2023/07/07 08:59:34;;;;;;;3.80;2.30;;;25.80;99.90;;;;;;5083489;28;20856;-65
2023/07/07 09:02:10;;;;;;;4.33;2.20;;;26.00;99.90;;;;;;5087128;28;20242;-65
2023/07/07 09:04:47;;;;;;;3.17;2.13;;;26.10;37.20;;;;;;5086864;28;20222;-65
2023/07/07 09:07:58;;;;;;;2.83;2.57;;;26.30;1.00;;;;;;5087021;28;20329;-65
2023/07/07 09:10:38;;;;;;;2.73;2.50;;;26.30;99.90;;;;;;4987715;28;20226;-65
2023/07/07 09:13:15;;;;;;;2.50;2.30;;;26.30;1.00;;;;;;4979849;28;20585;-65
2023/07/07 09:15:49;;;;;;;5.30;2.70;;;26.40;1.00;;;;;;5052089;28;20554;-65
2023/07/07 09:18:22;;;;;;;2.27;2.00;;;26.40;1.00;;;;;;5086928;28;20945;-66
2023/07/07 09:20:56;;;;;;;2.87;2.30;;;26.50;96.00;;;;;;5086658;28;20764;-66
2023/07/07 09:23:29;;;;;;;3.47;2.20;;;26.50;1.00;;;;;;5086904;28;20231;-66
2023/07/07 09:26:01;;;;;;;2.50;2.40;;;26.60;99.90;;;;;;5088690;28;20697;-66
2023/07/07 09:28:36;;;;;;;2.93;2.53;;;26.50;1.00;;;;;;5065641;28;20229;-65
2023/07/07 09:31:16;;;;;;;2.40;2.20;;;26.60;1.00;;;;;;5087114;28;20231;-65
2023/07/07 09:33:45;;;;;;;2.70;2.03;;;26.70;12.30;;;;;;5087050;28;20269;-64
2023/07/07 09:36:17;;;;;;;2.40;2.27;;;26.90;99.90;;;;;;5088675;28;20199;-66
2023/07/07 09:38:57;;;;;;;2.80;2.47;;;27.10;1.00;;;;;;5086960;28;20211;-66
2023/07/07 09:41:35;;;;;;;3.63;2.67;;;27.10;1.00;;;;;;5087702;28;20254;-66
2023/07/07 09:44:24;;;;;;;3.00;2.57;;;27.30;1.00;;;;;;5083662;28;20220;-66
2023/07/07 09:47:06;;;;;;;2.70;2.30;;;27.30;99.90;;;;;;5087619;28;20219;-66
2023/07/07 09:49:41;;;;;;;3.87;2.30;;;27.40;1.00;;;;;;5081868;28;20219;-66
2023/07/07 09:52:37;;;;;;;2.92;2.30;;;27.50;99.90;;;;;;5064239;28;20220;-66
2023/07/07 09:55:15;;;;;;;2.83;2.40;;;27.50;1.00;;;;;;5088972;28;20228;-65
2023/07/07 09:57:52;;;;;;;2.47;2.28;;;27.50;99.90;;;;;;5083714;28;20253;-66
2023/07/07 10:00:22;;;;;;;2.23;2.13;;;27.60;99.90;;;;;;5089720;28;20214;-65
2023/07/07 10:03:20;;;;;;;5.03;2.50;;;27.90;1.00;;;;;;5082033;28;20283;-66
2023/07/07 10:05:50;;;;;;;2.93;2.30;;;27.90;1.00;;;;;;5086916;28;20242;-66
2023/07/07 11:53:48;;;;;;;3.03;2.83;;;30.00;90.20;;;;;;5755754;23;20380;-64
2023/07/07 11:56:34;;;;;;;3.00;2.75;;;30.00;99.90;;;;;;4947489;28;20201;-63
2023/07/07 11:59:13;;;;;;;3.53;2.90;;;30.00;98.40;;;;;;4946467;28;20234;-63
2023/07/07 12:01:46;;;;;;;2.75;2.55;;;30.00;99.90;;;;;;4938043;29;20201;-63
2023/07/07 12:04:20;;;;;;;3.17;2.97;;;30.00;99.90;;;;;;4944556;28;20195;-63
2023/07/07 12:06:53;;;;;;;6.78;3.20;;;30.10;99.90;;;;;;4957079;28;20204;-63
2023/07/07 12:09:32;;;;;;;5.03;3.20;;;30.00;31.20;;;;;;4946584;28;20599;-63
2023/07/07 12:12:08;;;;;;;3.55;3.25;;;30.00;99.90;;;;;;4951172;28;20279;-63
2023/07/07 12:14:42;;;;;;;7.97;3.00;;;30.10;95.20;;;;;;4957320;28;20557;-63
2023/07/07 12:17:16;;;;;;;3.10;3.00;;;30.10;1.00;;;;;;4951340;29;20223;-63
2023/07/07 12:19:50;;;;;;;3.67;3.47;;;30.10;99.90;;;;;;4951063;28;20311;-63
2023/07/07 12:22:23;;;;;;;2.95;2.75;;;30.20;1.00;;;;;;4953524;28;20193;-63
2023/07/07 12:24:59;;;;;;;17.45;5.18;;;30.30;99.90;;;;;;4952906;28;20872;-63
2023/07/07 12:27:33;;;;;;;3.15;2.95;;;30.30;1.00;;;;;;4949545;28;20292;-63
2023/07/07 12:30:03;;;;;;;3.50;3.20;;;30.30;1.10;;;;;;4947415;28;20214;-63
2023/07/07 12:32:32;;;;;;;3.10;2.90;;;30.40;1.00;;;;;;4946598;28;20212;-63
2023/07/07 12:35:06;;;;;;;3.47;3.00;;;30.40;1.00;;;;;;4938637;28;20280;-63
2023/07/07 12:37:37;;;;;;;3.72;3.38;;;30.40;1.00;;;;;;4945502;28;20206;-63
2023/07/07 12:40:17;;;;;;;3.42;3.13;;;30.50;1.80;;;;;;4945225;28;20218;-63
2023/07/07 12:42:48;;;;;;;6.32;3.05;;;30.60;1.00;;;;;;4946543;28;20192;-62
2023/07/07 12:45:25;;;;;;;4.57;3.30;;;30.50;1.00;;;;;;4937222;28;20189;-63
2023/07/07 12:47:57;;;;;;;3.30;3.10;;;30.50;1.00;;;;;;4946663;28;20200;-63
2023/07/07 12:50:29;;;;;;;3.75;2.95;;;30.40;1.00;;;;;;4949026;28;20198;-63
2023/07/07 12:53:03;;;;;;;11.27;3.65;;;30.30;1.00;;;;;;4956748;28;20198;-63
2023/07/07 12:55:38;;;;;;;3.58;3.30;;;30.20;1.00;;;;;;4927143;29;20195;-63
2023/07/07 12:58:40;;;;;;;3.40;3.13;;;30.20;1.00;;;;;;4934819;29;20239;-63
2023/07/07 13:01:29;;;;;;;3.10;2.92;;;30.40;1.00;;;;;;4927901;29;20245;-63
2023/07/07 13:04:09;;;;;;;5.18;3.22;;;30.60;1.00;;;;;;4941460;29;20245;-63
2023/07/07 13:06:40;;;;;;;5.95;3.50;;;30.40;1.00;;;;;;4931386;29;20234;-63
2023/07/07 13:09:23;;;;;;;3.45;3.15;;;30.40;1.00;;;;;;4928478;29;20269;-64
2023/07/07 13:11:55;;;;;;;3.95;3.30;;;30.30;1.00;;;;;;4943673;29;20209;-64
2023/07/07 13:14:44;;;;;;;3.40;3.17;;;30.20;1.00;;;;;;4934843;29;20211;-63
2023/07/07 13:17:17;;;;;;;3.65;3.35;;;30.30;1.00;;;;;;4934128;29;20201;-64
2023/07/07 13:19:50;;;;;;;3.53;3.22;;;30.20;1.00;;;;;;4935320;29;20208;-63
2023/07/07 13:22:25;;;;;;;3.30;3.00;;;30.30;1.00;;;;;;4931750;29;20210;-64
2023/07/07 13:24:58;;;;;;;5.10;3.47;;;30.40;1.00;;;;;;4937372;29;20323;-64
2023/07/07 13:27:28;;;;;;;4.13;3.53;;;30.30;1.00;;;;;;4937541;29;20208;-64
2023/07/07 13:30:01;;;;;;;7.20;3.13;;;30.30;1.00;;;;;;4934427;29;20201;-64
2023/07/07 13:32:31;;;;;;;4.80;3.60;;;30.60;1.00;;;;;;4931811;29;20213;-63
2023/07/07 13:35:02;;;;;;;4.00;3.60;;;30.90;1.00;;;;;;4931539;29;20224;-63
2023/07/07 13:37:33;;;;;;;3.83;3.25;;;31.10;1.00;;;;;;4950450;29;20211;-63
2023/07/07 13:40:02;;;;;;;4.05;3.72;;;31.30;1.00;;;;;;4934952;29;20606;-64
2023/07/07 13:42:34;;;;;;;3.70;3.50;;;31.40;1.00;;;;;;4938998;29;20208;-63
2023/07/07 13:45:07;;;;;;;4.30;3.45;;;31.30;1.00;;;;;;4940112;29;20586;-64
2023/07/07 13:47:41;;;;;;;5.32;3.42;;;31.20;1.00;;;;;;4940450;28;20206;-63
2023/07/07 13:50:14;;;;;;;5.07;3.67;;;31.00;1.00;;;;;;4941055;29;20198;-64
2023/07/07 13:52:45;;;;;;;3.75;3.55;;;31.00;1.00;;;;;;4963437;28;20203;-63
2023/07/07 13:55:16;;;;;;;3.97;3.67;;;30.90;1.00;;;;;;4950436;28;20234;-63
2023/07/07 13:57:46;;;;;;;3.58;3.28;;;30.60;1.00;;;;;;4953982;28;20202;-63
2023/07/07 14:00:22;;;;;;;4.07;3.40;;;30.60;1.00;;;;;;4957177;28;20227;-63
2023/07/07 14:02:50;;;;;;;3.55;3.25;;;30.60;1.00;;;;;;4961125;28;20283;-63
2023/07/07 14:05:21;;;;;;;3.80;3.58;;;30.80;99.90;;;;;;4955757;28;20276;-63
2023/07/07 14:07:50;;;;;;;3.83;3.53;;;31.00;1.00;;;;;;4962431;28;20294;-63
2023/07/07 14:10:34;;;;;;;3.78;3.50;;;31.30;1.00;;;;;;4959766;28;20224;-63
2023/07/07 14:13:19;;;;;;;4.18;3.78;;;31.70;1.00;;;;;;4957699;29;20278;-63
2023/07/07 14:15:55;;;;;;;4.18;3.33;;;31.60;99.90;;;;;;4955566;28;20224;-63
2023/07/07 14:18:34;;;;;;;6.22;3.28;;;31.30;99.90;;;;;;4958884;28;20576;-63
2023/07/07 14:21:07;;;;;;;3.90;3.55;;;30.90;99.90;;;;;;4955472;28;20217;-63
2023/07/07 14:23:39;;;;;;;5.32;3.20;;;30.80;99.90;;;;;;4950412;28;20193;-63
2023/07/07 14:26:15;;;;;;;5.90;3.60;;;30.60;99.90;;;;;;4958329;28;20205;-63
2023/07/07 14:28:46;;;;;;;3.78;3.47;;;30.60;99.90;;;;;;4957133;28;20555;-64
2023/07/07 14:31:15;;;;;;;4.22;3.83;;;31.00;1.00;;;;;;4963205;28;20181;-63
2023/07/07 14:33:46;;;;;;;5.63;3.50;;;31.20;99.90;;;;;;4956197;28;20206;-63
2023/07/07 14:36:22;;;;;;;3.70;3.30;;;31.30;99.90;;;;;;4964292;28;20302;-63
2023/07/07 14:38:54;;;;;;;5.03;3.42;;;31.20;99.90;;;;;;4957629;28;20234;-63
2023/07/07 14:41:24;;;;;;;3.67;3.47;;;31.00;99.90;;;;;;4960772;28;20297;-63
2023/07/07 14:43:55;;;;;;;3.85;3.35;;;31.10;99.90;;;;;;4953616;28;20550;-63
2023/07/07 14:46:27;;;;;;;4.13;3.83;;;31.20;99.90;;;;;;4946159;28;20198;-63
2023/07/07 14:48:59;;;;;;;6.43;3.72;;;31.30;99.90;;;;;;4950134;28;20193;-64
2023/07/07 14:51:32;;;;;;;5.18;3.80;;;31.50;99.90;;;;;;4954195;28;20199;-63
2023/07/07 14:54:04;;;;;;;4.30;3.90;;;31.60;99.90;;;;;;4960785;28;20225;-63
2023/07/07 14:56:34;;;;;;;5.93;4.03;;;31.70;99.90;;;;;;4950423;28;20557;-63
2023/07/07 14:59:17;;;;;;;5.53;3.65;;;31.60;99.90;;;;;;4949273;28;20190;-63